Time;durP1;ratioP1;P1;durP2;ratioP2;P2;SDS_P1;SDS_P2;PMS_P1;PMS_P2;Temp;Humidity;BMP_temperature;BMP_pressure;BME280_temperature;BME280_humidity;BME280_pressure;Samples;Min_cycle;Max_cycle;Signal;HPM_P1;HPM_P2
2023/06/12 00:00:37;;;;;;;7.32;5.00;;;;;;;14.87;66.60;95945.50;2025904;29;20053;-57
2023/06/12 00:01:39;;;;;;;6.55;4.78;;;;;;;14.84;66.85;95941.31;2026030;29;20362;-57
2023/06/12 00:02:41;;;;;;;6.25;4.90;;;;;;;14.78;66.58;95941.69;2026144;29;20048;-57
2023/06/12 00:03:43;;;;;;;6.00;5.30;;;;;;;14.77;66.97;95945.25;2026010;29;20072;-57
2023/06/12 00:04:44;;;;;;;7.25;5.28;;;;;;;14.73;67.18;95942.03;2026249;29;20085;-57
2023/06/12 00:05:46;;;;;;;9.32;4.85;;;;;;;14.62;67.47;95934.03;2026151;29;20049;-57
2023/06/12 00:06:48;;;;;;;6.55;4.65;;;;;;;14.73;67.70;95941.19;2025812;29;20059;-57
2023/06/12 00:07:55;;;;;;;6.70;5.30;;;;;;;14.65;67.58;95927.75;2026305;29;20052;-57
2023/06/12 00:08:56;;;;;;;5.97;5.28;;;;;;;14.67;67.73;95942.38;2026247;29;20046;-57
2023/06/12 00:09:58;;;;;;;6.63;4.97;;;;;;;14.64;67.67;95939.97;2017567;29;20057;-58
2023/06/12 00:10:59;;;;;;;7.90;5.03;;;;;;;14.70;68.02;95941.34;2017869;29;20388;-57
2023/06/12 00:12:00;;;;;;;6.75;4.97;;;;;;;14.73;67.52;95934.19;2018016;29;20496;-57
2023/06/12 00:13:01;;;;;;;6.65;4.65;;;;;;;14.73;67.82;95939.41;2017866;29;20048;-57
2023/06/12 00:14:02;;;;;;;7.75;5.20;;;;;;;14.69;67.89;95943.13;2026145;29;20070;-57
2023/06/12 00:15:04;;;;;;;8.25;4.78;;;;;;;14.74;68.21;95935.84;2025557;29;20445;-57
2023/06/12 00:16:05;;;;;;;8.98;5.10;;;;;;;14.74;67.92;95940.25;2025531;29;20052;-57
2023/06/12 00:17:06;;;;;;;7.97;5.40;;;;;;;14.74;68.29;95938.44;2026000;29;20065;-57
2023/06/12 00:18:07;;;;;;;7.85;5.30;;;;;;;14.74;68.23;95945.47;2025856;29;20397;-57
2023/06/12 00:19:08;;;;;;;6.20;5.15;;;;;;;14.68;68.16;95938.03;2026437;29;20056;-57
2023/06/12 00:20:10;;;;;;;6.57;5.65;;;;;;;14.63;68.74;95943.53;2026202;29;20051;-57
2023/06/12 00:21:11;;;;;;;10.35;5.38;;;;;;;14.61;68.81;95939.34;2026223;29;20053;-57
2023/06/12 00:22:12;;;;;;;7.32;4.90;;;;;;;14.62;68.62;95941.00;2017033;29;20056;-57
2023/06/12 00:23:13;;;;;;;8.07;5.82;;;;;;;14.51;69.09;95937.31;2017751;29;20410;-57
2023/06/12 00:24:15;;;;;;;7.10;5.10;;;;;;;14.59;69.30;95942.03;2026042;29;20056;-56
2023/06/12 00:25:16;;;;;;;7.28;5.40;;;;;;;14.59;69.17;95934.22;2026248;29;20048;-56
2023/06/12 00:26:17;;;;;;;6.65;5.03;;;;;;;14.63;69.24;95935.69;2025846;29;20412;-56
2023/06/12 00:27:19;;;;;;;7.18;5.57;;;;;;;14.63;69.00;95938.31;2025728;29;20485;-57
2023/06/12 00:28:20;;;;;;;8.25;5.13;;;;;;;14.62;68.85;95925.34;2025970;29;20055;-57
2023/06/12 00:29:21;;;;;;;6.38;5.28;;;;;;;14.65;68.44;95918.16;2017929;29;20045;-57
2023/06/12 00:30:22;;;;;;;7.32;5.15;;;;;;;14.71;68.74;95935.22;2010206;29;20062;-57
2023/06/12 00:31:24;;;;;;;6.47;5.45;;;;;;;14.65;69.05;95935.59;2017172;29;20477;-57
2023/06/12 00:32:25;;;;;;;6.97;5.38;;;;;;;14.67;69.16;95933.72;2025976;29;20048;-57
2023/06/12 00:33:27;;;;;;;7.40;5.18;;;;;;;14.59;69.10;95926.38;2026116;29;20056;-57
2023/06/12 00:34:28;;;;;;;5.68;5.07;;;;;;;14.62;69.40;95935.78;2025977;29;20048;-57
2023/06/12 00:35:29;;;;;;;5.82;4.93;;;;;;;14.64;69.04;95939.16;2017647;29;20056;-57
2023/06/12 00:36:30;;;;;;;7.25;5.47;;;;;;;14.56;69.05;95930.00;2017487;29;20061;-57
2023/06/12 00:37:32;;;;;;;6.93;5.75;;;;;;;14.56;68.82;95930.00;2025828;29;20056;-57
2023/06/12 00:38:34;;;;;;;7.05;5.25;;;;;;;14.54;69.58;95937.13;2017162;29;20081;-58
2023/06/12 00:39:35;;;;;;;9.07;5.38;;;;;;;14.55;69.31;95933.56;2010072;29;20560;-57
2023/06/12 00:40:37;;;;;;;6.97;5.50;;;;;;;14.51;69.35;95931.22;2017322;29;20105;-57
2023/06/12 00:41:38;;;;;;;6.85;5.70;;;;;;;14.45;69.63;95929.00;2017374;29;20492;-57
2023/06/12 00:42:47;;;;;;;8.35;5.53;;;;;;;14.33;69.61;95923.63;2026125;29;20040;-57
2023/06/12 00:43:48;;;;;;;6.28;5.05;;;;;;;14.39;70.23;95938.06;2025975;29;20060;-57
2023/06/12 00:44:49;;;;;;;7.95;5.55;;;;;;;14.33;70.25;95921.00;2025789;29;20055;-57
2023/06/12 00:45:50;;;;;;;7.90;5.40;;;;;;;14.39;70.12;95935.47;2025604;29;20064;-57
2023/06/12 00:46:51;;;;;;;7.15;5.47;;;;;;;14.34;70.37;95933.13;2025398;29;20060;-57
2023/06/12 00:47:56;;;;;;;7.43;4.97;;;;;;;14.23;70.83;95917.31;2017500;29;20068;-56
2023/06/12 00:48:57;;;;;;;6.43;5.32;;;;;;;14.29;70.87;95926.53;2009745;29;20045;-57
2023/06/12 00:49:58;;;;;;;7.75;5.47;;;;;;;14.28;71.14;95933.53;2002702;29;20057;-56
2023/06/12 00:50:59;;;;;;;6.15;5.55;;;;;;;14.28;70.81;95930.91;2009810;29;20041;-57
2023/06/12 00:52:01;;;;;;;6.72;5.15;;;;;;;14.29;71.02;95936.97;2002329;29;20057;-57
2023/06/12 00:53:03;;;;;;;8.50;6.25;;;;;;;14.18;71.26;95916.75;1995131;29;20066;-57
2023/06/12 00:54:04;;;;;;;7.68;5.50;;;;;;;14.16;71.60;95925.59;2002182;29;20054;-57
2023/06/12 00:55:05;;;;;;;5.80;5.20;;;;;;;14.20;71.78;95927.09;2002355;29;20045;-57
2023/06/12 00:56:06;;;;;;;7.70;5.60;;;;;;;14.21;71.62;95931.38;2002364;29;20042;-57
2023/06/12 00:57:07;;;;;;;7.00;5.63;;;;;;;14.18;71.54;95924.59;2009551;29;20054;-57
2023/06/12 00:58:09;;;;;;;6.45;5.55;;;;;;;14.15;72.11;95931.78;2017387;29;20044;-57
2023/06/12 00:59:10;;;;;;;7.82;5.75;;;;;;;14.03;72.21;95910.72;2017181;29;20513;-57
2023/06/12 01:00:12;;;;;;;7.53;5.72;;;;;;;14.08;72.26;95926.91;2017150;29;20061;-57
2023/06/12 01:01:14;;;;;;;8.35;5.82;;;;;;;14.09;72.72;95926.00;2001846;29;20494;-57
2023/06/12 01:02:15;;;;;;;8.43;5.40;;;;;;;14.10;72.47;95929.44;2001943;29;20084;-57
2023/06/12 01:03:16;;;;;;;8.77;6.05;;;;;;;14.15;72.44;95934.38;2017421;29;20053;-57
2023/06/12 01:04:18;;;;;;;7.65;5.78;;;;;;;14.08;72.85;95926.91;2017492;29;20501;-57
2023/06/12 01:05:32;;;;;;;7.97;6.13;;;;;;;13.98;72.92;95918.00;2009748;29;20053;-57
2023/06/12 01:06:50;;;;;;;6.53;5.53;;;;;;;14.01;72.50;95928.25;2004007;29;20069;-57
2023/06/12 01:07:56;;;;;;;8.65;6.32;;;;;;;13.95;72.92;95918.16;1992450;29;20059;-56
2023/06/12 01:09:05;;;;;;;8.45;6.15;;;;;;;13.98;73.31;95925.84;2004115;29;20046;-57
2023/06/12 01:10:30;;;;;;;6.90;5.68;;;;;;;14.01;73.53;95930.88;2010028;29;20053;-57
2023/06/12 01:11:31;;;;;;;9.38;5.90;;;;;;;13.95;73.75;95922.56;1998344;29;20056;-57
2023/06/12 01:12:32;;;;;;;7.05;5.72;;;;;;;13.92;73.10;95914.91;2002293;29;20355;-56
2023/06/12 01:13:34;;;;;;;8.15;6.10;;;;;;;13.96;73.78;95930.31;1994698;29;20062;-56
2023/06/12 01:14:35;;;;;;;6.43;5.68;;;;;;;13.93;73.31;95921.84;2002045;29;20061;-57
2023/06/12 01:15:37;;;;;;;9.35;5.97;;;;;;;13.93;73.89;95921.84;2009960;29;20053;-57
2023/06/12 01:16:40;;;;;;;7.35;6.05;;;;;;;13.94;74.06;95924.34;2025108;29;20063;-60
2023/06/12 01:17:41;;;;;;;9.00;6.07;;;;;;;13.89;74.31;95922.00;2025665;29;20052;-60
2023/06/12 01:18:43;;;;;;;7.70;5.70;;;;;;;13.90;74.32;95918.47;2017477;29;20053;-60
2023/06/12 01:19:44;;;;;;;7.18;6.20;;;;;;;13.90;74.38;95918.47;2017158;29;20061;-60
2023/06/12 01:20:45;;;;;;;8.55;6.68;;;;;;;13.94;74.38;95918.28;2016735;29;20057;-60
2023/06/12 01:21:49;;;;;;;9.23;6.78;;;;;;;13.97;74.06;95920.69;2002019;29;20053;-60
2023/06/12 01:23:41;;;;;;;8.00;6.10;;;;;;;13.97;74.22;95925.91;1995149;29;20062;-60
2023/06/12 01:24:53;;;;;;;12.32;6.13;;;;;;;13.96;73.51;95921.66;1986669;29;20055;-60
2023/06/12 01:26:00;;;;;;;8.77;6.82;;;;;;;14.02;74.42;95916.03;2008075;29;20045;-60
2023/06/12 01:27:33;;;;;;;6.88;6.18;;;;;;;14.04;73.79;95915.00;2003252;29;20105;-60
2023/06/12 01:29:11;;;;;;;7.95;6.15;;;;;;;14.01;73.50;95919.59;2003616;29;20502;-60
2023/06/12 01:30:31;;;;;;;8.15;6.50;;;;;;;14.00;73.81;95920.50;2014346;29;20053;-59
2023/06/12 01:32:05;;;;;;;8.85;6.38;;;;;;;14.04;73.96;95911.56;2011833;29;20061;-60
2023/06/12 01:33:07;;;;;;;8.15;6.38;;;;;;;14.03;73.91;95917.69;2016847;29;20406;-60
2023/06/12 01:34:15;;;;;;;10.80;6.28;;;;;;;13.97;73.86;95915.47;2009868;29;20084;-60
2023/06/12 01:35:23;;;;;;;8.13;6.10;;;;;;;14.00;73.62;95917.88;2002851;29;20046;-61
2023/06/12 01:36:25;;;;;;;;;;;;;;;14.01;74.10;95919.59;2004826;29;20418;-60
2023/06/12 01:37:31;;;;;;;7.47;5.97;;;;;;;14.04;73.65;95916.78;2002104;29;19916;-60
2023/06/12 01:38:32;;;;;;;8.65;6.57;;;;;;;14.05;73.62;95921.88;2001851;29;20086;-60
2023/06/12 01:39:36;;;;;;;7.90;6.00;;;;;;;14.07;73.39;95921.81;1994477;29;20058;-60
2023/06/12 01:40:38;;;;;;;8.95;6.55;;;;;;;14.09;73.23;95909.50;2009658;29;20509;-60
2023/06/12 01:41:39;;;;;;;8.60;6.00;;;;;;;14.12;73.45;95917.13;2016648;29;20057;-60
2023/06/12 01:42:41;;;;;;;9.57;5.97;;;;;;;14.07;73.28;95916.59;2001639;29;20454;-60
2023/06/12 01:43:42;;;;;;;7.53;5.50;;;;;;;14.16;72.89;95920.38;1994530;29;20062;-60
2023/06/12 01:44:43;;;;;;;7.78;6.32;;;;;;;14.11;73.16;95921.53;1994038;29;20062;-60
2023/06/12 01:45:45;;;;;;;8.02;6.60;;;;;;;14.08;73.42;95913.03;2009853;29;20053;-60
2023/06/12 01:46:46;;;;;;;6.90;6.18;;;;;;;14.09;73.09;95912.94;2009514;29;20049;-60
2023/06/12 01:47:48;;;;;;;7.13;6.35;;;;;;;14.09;73.11;95918.16;2008996;29;20046;-60
2023/06/12 01:48:51;;;;;;;9.65;6.22;;;;;;;14.10;72.89;95913.78;2009729;29;20057;-60
2023/06/12 01:49:52;;;;;;;10.70;6.07;;;;;;;14.06;72.85;95914.88;2009723;29;20053;-60
2023/06/12 01:50:54;;;;;;;9.20;6.07;;;;;;;14.06;73.07;95917.50;2009000;29;20053;-60
2023/06/12 01:51:55;;;;;;;9.10;6.40;;;;;;;14.09;72.94;95917.34;2009489;29;20508;-60
2023/06/12 01:52:56;;;;;;;7.32;6.18;;;;;;;13.99;73.06;95900.56;2009522;29;20171;-60
2023/06/12 01:53:57;;;;;;;10.18;6.53;;;;;;;14.06;73.02;95917.50;2016833;29;20151;-60
2023/06/12 01:54:59;;;;;;;8.10;6.20;;;;;;;13.98;73.11;95896.25;2025205;29;20540;-60
2023/06/12 01:56:00;;;;;;;7.85;6.80;;;;;;;14.06;72.99;95914.88;2017221;29;20120;-60
2023/06/12 01:57:03;;;;;;;7.60;6.43;;;;;;;14.05;73.13;95910.63;2009644;29;20072;-60
2023/06/12 01:58:08;;;;;;;7.78;6.40;;;;;;;14.12;73.33;95909.31;2016601;29;20052;-60
2023/06/12 01:59:28;;;;;;;9.60;7.03;;;;;;;14.00;72.98;95902.22;2019669;29;20072;-60
2023/06/12 02:00:29;;;;;;;9.50;6.68;;;;;;;14.03;72.82;95912.47;2016499;29;20072;-60
2023/06/12 02:01:30;;;;;;;7.78;5.93;;;;;;;13.97;72.71;95915.47;2016567;29;20056;-60
2023/06/12 02:02:34;;;;;;;7.25;6.18;;;;;;;13.87;73.25;95896.91;2009102;29;20080;-60
2023/06/12 02:03:37;;;;;;;9.77;6.65;;;;;;;13.97;73.00;95912.88;2010842;29;20061;-60
2023/06/12 02:04:38;;;;;;;9.70;6.75;;;;;;;13.95;73.38;95914.72;2018242;29;20537;-60
2023/06/12 02:05:39;;;;;;;6.75;6.03;;;;;;;13.89;73.55;95908.94;2018607;29;20087;-60
2023/06/12 02:06:40;;;;;;;8.57;6.53;;;;;;;13.87;73.79;95908.22;2018021;29;20065;-60
2023/06/12 02:07:41;;;;;;;8.57;6.30;;;;;;;13.86;73.62;95908.31;2010755;29;20528;-60
2023/06/12 02:08:43;;;;;;;8.93;6.15;;;;;;;13.85;73.78;95915.31;2010680;29;20064;-60
2023/06/12 02:09:47;;;;;;;7.88;6.55;;;;;;;13.77;73.75;95912.31;2011216;29;20478;-60
2023/06/12 02:10:48;;;;;;;10.02;6.75;;;;;;;13.74;73.93;95911.66;2010687;29;20061;-60
2023/06/12 02:11:49;;;;;;;7.00;5.93;;;;;;;13.74;74.47;95914.25;2018772;29;20140;-60
2023/06/12 02:12:51;;;;;;;7.53;6.72;;;;;;;13.76;74.39;95908.03;2026808;29;20519;-60
2023/06/12 02:13:52;;;;;;;8.07;6.60;;;;;;;13.72;74.32;95914.38;2010684;29;20414;-60
2023/06/12 02:14:55;;;;;;;9.98;6.40;;;;;;;13.70;74.69;95905.78;2010195;29;20068;-60
2023/06/12 02:15:56;;;;;;;8.93;7.00;;;;;;;13.67;74.66;95909.44;2026906;29;20064;-60
2023/06/12 02:16:57;;;;;;;9.77;6.45;;;;;;;13.64;74.73;95916.63;2018144;29;20053;-60
2023/06/12 02:18:00;;;;;;;9.35;6.35;;;;;;;13.61;74.61;95908.97;2018096;29;20119;-60
2023/06/12 02:19:03;;;;;;;10.38;6.63;;;;;;;13.60;74.80;95915.09;2011224;29;20414;-60
2023/06/12 02:20:05;;;;;;;10.20;6.57;;;;;;;13.58;75.30;95914.34;2018921;29;20184;-60
2023/06/12 02:21:06;;;;;;;9.10;6.75;;;;;;;13.57;75.50;95912.69;2026375;29;20500;-60
2023/06/12 02:22:08;;;;;;;8.05;6.38;;;;;;;13.47;75.12;95901.97;2018881;29;20053;-60
2023/06/12 02:23:09;;;;;;;7.85;6.30;;;;;;;13.53;75.23;95919.03;2018150;29;20049;-60
2023/06/12 02:24:10;;;;;;;8.73;6.75;;;;;;;13.53;75.59;95917.25;2018652;29;20048;-60
2023/06/12 02:25:11;;;;;;;8.20;6.75;;;;;;;13.55;75.83;95914.53;2017962;29;20057;-60
2023/06/12 02:26:12;;;;;;;8.57;6.85;;;;;;;13.50;75.68;95911.38;2018679;29;20053;-60
2023/06/12 02:27:14;;;;;;;8.75;6.70;;;;;;;13.45;75.93;95906.44;2010863;29;20053;-60
2023/06/12 02:28:15;;;;;;;7.40;6.60;;;;;;;13.49;75.76;95914.91;2010783;29;20398;-60
2023/06/12 02:29:16;;;;;;;9.13;6.75;;;;;;;13.44;75.74;95905.63;2018316;29;20056;-60
2023/06/12 02:30:24;;;;;;;7.80;6.68;;;;;;;13.54;75.63;95915.50;2011721;29;20060;-60
2023/06/12 02:31:27;;;;;;;7.65;6.85;;;;;;;13.56;75.66;95911.84;2010588;29;20401;-60
2023/06/12 02:32:28;;;;;;;8.93;6.60;;;;;;;13.56;75.53;95918.84;2010233;29;20064;-60
2023/06/12 02:33:31;;;;;;;8.38;6.97;;;;;;;13.56;75.28;95914.47;2018569;29;20626;-60
2023/06/12 02:34:32;;;;;;;8.25;7.45;;;;;;;13.52;75.52;95915.56;2018641;29;20053;-60
2023/06/12 02:35:33;;;;;;;9.38;7.00;;;;;;;13.47;75.81;95915.00;2010769;29;20061;-59
2023/06/12 02:36:39;;;;;;;8.73;7.00;;;;;;;13.33;76.04;95900.19;2018563;29;20513;-60
2023/06/12 02:37:41;;;;;;;7.65;6.70;;;;;;;13.39;76.22;95912.00;2018526;29;20424;-60
2023/06/12 02:38:43;;;;;;;11.18;6.85;;;;;;;13.35;76.58;95916.59;2018611;29;20059;-60
2023/06/12 02:39:44;;;;;;;9.57;6.88;;;;;;;13.34;77.01;95914.91;2026534;29;20064;-60
2023/06/12 02:40:46;;;;;;;10.65;6.80;;;;;;;13.27;76.82;95904.94;2017981;29;20061;-60
2023/06/12 02:41:48;;;;;;;7.20;6.50;;;;;;;13.28;77.13;95914.44;2010492;29;20053;-60
2023/06/12 02:42:49;;;;;;;7.95;6.70;;;;;;;13.26;77.39;95911.94;2010911;29;20453;-60
2023/06/12 02:43:50;;;;;;;7.57;6.50;;;;;;;13.25;77.23;95915.41;2010550;29;20502;-60
2023/06/12 02:44:51;;;;;;;9.60;6.88;;;;;;;13.25;77.20;95915.41;2018133;29;20061;-60
2023/06/12 02:45:53;;;;;;;9.45;7.10;;;;;;;13.24;77.34;95911.97;2010983;29;20147;-60
2023/06/12 02:46:56;;;;;;;10.63;7.55;;;;;;;13.14;77.29;95899.56;2010495;29;20053;-60
2023/06/12 02:48:07;;;;;;;10.38;7.15;;;;;;;13.31;77.20;95915.09;2004503;29;20061;-60
2023/06/12 02:49:12;;;;;;;9.10;7.70;;;;;;;13.20;77.08;95901.81;2012576;29;20438;-60
2023/06/12 02:50:16;;;;;;;10.73;6.97;;;;;;;13.12;77.30;95889.22;2010384;29;20049;-59
2023/06/12 02:51:23;;;;;;;8.63;7.72;;;;;;;13.25;77.73;95918.84;2011334;29;20060;-60
2023/06/12 02:52:24;;;;;;;8.13;7.20;;;;;;;13.20;77.49;95922.66;2018649;29;20060;-60
2023/06/12 02:53:25;;;;;;;9.30;7.28;;;;;;;13.18;77.76;95924.53;2018141;29;20064;-60
2023/06/12 02:54:28;;;;;;;9.07;6.85;;;;;;;13.15;78.15;95924.69;2010580;29;20513;-59
2023/06/12 02:55:31;;;;;;;9.02;7.43;;;;;;;13.14;78.19;95923.88;2011051;29;20398;-60
2023/06/12 02:56:32;;;;;;;9.52;7.88;;;;;;;13.11;78.22;95926.66;2018042;29;20052;-60
2023/06/12 02:57:34;;;;;;;8.23;7.32;;;;;;;13.09;78.45;95920.69;2010585;29;20050;-60
2023/06/12 02:58:35;;;;;;;9.70;7.22;;;;;;;13.07;77.96;95922.56;2010446;29;20068;-60
2023/06/12 02:59:36;;;;;;;11.65;7.35;;;;;;;13.05;78.73;95923.59;2010659;29;20069;-59
2023/06/12 03:00:44;;;;;;;8.73;7.55;;;;;;;13.04;78.81;95922.72;2011108;29;20064;-60
2023/06/12 03:01:45;;;;;;;9.90;7.45;;;;;;;13.01;78.84;95915.91;2010856;29;20060;-61
2023/06/12 03:02:55;;;;;;;8.73;7.65;;;;;;;13.06;78.90;95925.25;2018208;29;20079;-62
2023/06/12 03:03:58;;;;;;;8.43;7.30;;;;;;;13.11;78.62;95925.81;2018170;29;20433;-62
2023/06/12 03:04:59;;;;;;;12.30;7.80;;;;;;;13.12;78.53;95919.66;2010437;29;20512;-61
2023/06/12 03:06:01;;;;;;;10.65;7.63;;;;;;;13.19;78.35;95934.03;2010676;29;20156;-62
2023/06/12 03:07:05;;;;;;;9.80;7.97;;;;;;;13.06;78.34;95918.25;2010662;29;20049;-62
2023/06/12 03:08:08;;;;;;;9.32;7.72;;;;;;;13.18;78.03;95924.53;2010939;29;20061;-61
2023/06/12 03:09:09;;;;;;;9.85;7.40;;;;;;;13.19;78.49;95927.03;2010493;29;20276;-61
2023/06/12 03:10:10;;;;;;;14.02;8.43;;;;;;;13.19;78.14;95928.81;2010653;29;20052;-61
2023/06/12 03:11:11;;;;;;;9.25;7.20;;;;;;;13.13;78.19;95931.78;2010629;29;20060;-61
2023/06/12 03:12:13;;;;;;;11.32;8.50;;;;;;;13.13;78.58;95923.97;2018196;29;20544;-62
2023/06/12 03:13:14;;;;;;;8.77;7.53;;;;;;;13.13;78.70;95929.19;2010727;29;20049;-62
2023/06/12 03:14:17;;;;;;;9.73;8.05;;;;;;;13.14;78.67;95923.88;2009948;29;20053;-61
2023/06/12 03:15:18;;;;;;;8.68;7.45;;;;;;;13.12;78.42;95924.88;2010102;29;20045;-62
2023/06/12 03:16:20;;;;;;;8.73;7.43;;;;;;;13.19;78.16;95924.44;2010296;29;20057;-62
2023/06/12 03:17:21;;;;;;;9.32;7.88;;;;;;;13.14;78.67;95925.63;2010597;29;20053;-62
2023/06/12 03:18:23;;;;;;;8.57;7.43;;;;;;;13.12;78.47;95928.31;2010638;29;20049;-62
2023/06/12 03:19:24;;;;;;;10.15;8.05;;;;;;;13.12;78.39;95922.28;2018404;29;20461;-61
2023/06/12 03:20:26;;;;;;;12.40;7.57;;;;;;;13.12;78.45;95923.09;2017899;29;20057;-62
2023/06/12 03:21:27;;;;;;;10.27;8.15;;;;;;;13.12;78.45;95919.66;2010172;29;20068;-57
2023/06/12 03:22:28;;;;;;;10.45;7.72;;;;;;;13.11;78.47;95924.06;2018247;29;20433;-57
2023/06/12 03:23:30;;;;;;;10.52;7.88;;;;;;;13.14;78.70;95925.63;2026148;29;20053;-57
2023/06/12 03:24:32;;;;;;;9.00;8.10;;;;;;;13.16;78.05;95929.84;2017904;29;20057;-56
2023/06/12 03:25:33;;;;;;;10.30;7.82;;;;;;;13.19;78.73;95934.88;2010486;29;20073;-57
2023/06/12 03:26:34;;;;;;;8.85;7.55;;;;;;;13.16;78.42;95931.63;2018508;29;20076;-57
2023/06/12 03:27:36;;;;;;;12.93;8.20;;;;;;;13.18;78.16;95934.97;2017886;29;20432;-57
2023/06/12 03:28:37;;;;;;;9.60;7.55;;;;;;;13.16;78.19;95934.22;2010531;29;20437;-56
2023/06/12 03:29:38;;;;;;;9.93;7.70;;;;;;;13.11;78.53;95931.88;2010101;29;20064;-57
2023/06/12 03:30:39;;;;;;;11.45;7.65;;;;;;;13.06;78.41;95928.69;2010510;29;20064;-57
2023/06/12 03:31:41;;;;;;;12.75;8.38;;;;;;;13.08;78.47;95937.28;2010264;29;20060;-57
2023/06/12 03:32:42;;;;;;;10.80;7.85;;;;;;;12.98;79.10;95928.28;2009800;29;20525;-57
2023/06/12 03:33:43;;;;;;;9.73;7.95;;;;;;;13.05;79.16;95934.00;2002448;29;20068;-57
2023/06/12 03:34:48;;;;;;;9.35;7.90;;;;;;;13.02;78.70;95929.81;2003754;29;20068;-56
2023/06/12 03:35:50;;;;;;;11.27;7.50;;;;;;;12.97;79.01;95918.81;2010368;29;20061;-57
2023/06/12 03:36:52;;;;;;;11.10;8.45;;;;;;;13.05;79.00;95931.41;2010369;29;20409;-57
2023/06/12 03:37:58;;;;;;;10.07;8.35;;;;;;;13.00;79.33;95935.09;2011062;29;20508;-58
2023/06/12 03:39:00;;;;;;;9.32;7.97;;;;;;;12.95;79.45;95929.31;2010303;29;20056;-57
2023/06/12 03:40:03;;;;;;;12.60;8.45;;;;;;;12.99;78.96;95933.44;2009939;29;20053;-57
2023/06/12 03:41:08;;;;;;;10.07;8.52;;;;;;;12.96;79.42;95935.34;2003495;29;20116;-56
2023/06/12 03:42:10;;;;;;;10.60;8.50;;;;;;;12.97;79.14;95937.06;2003019;29;20149;-57
2023/06/12 03:43:20;;;;;;;10.68;7.60;;;;;;;13.01;79.25;95936.78;2019328;29;20049;-57
2023/06/12 03:44:22;;;;;;;11.85;8.43;;;;;;;12.99;79.31;95935.19;2018040;29;20072;-57
2023/06/12 03:45:23;;;;;;;10.30;8.50;;;;;;;12.98;79.35;95944.78;2010560;29;20068;-56
2023/06/12 03:46:24;;;;;;;9.63;8.23;;;;;;;13.00;79.55;95937.72;2010316;29;20548;-57
2023/06/12 03:47:26;;;;;;;10.38;7.78;;;;;;;13.02;79.54;95933.25;2010071;29;20057;-57
2023/06/12 03:48:27;;;;;;;12.10;8.13;;;;;;;13.03;79.15;95941.91;2010345;29;20439;-57
2023/06/12 03:49:28;;;;;;;11.25;8.55;;;;;;;13.05;79.07;95936.63;2017463;29;20063;-57
2023/06/12 03:50:29;;;;;;;9.98;7.88;;;;;;;13.08;79.48;95941.66;2017735;29;20064;-57
2023/06/12 03:51:33;;;;;;;11.35;8.73;;;;;;;13.07;79.80;95937.34;2010176;29;20072;-57
2023/06/12 03:52:34;;;;;;;9.00;7.95;;;;;;;13.06;79.42;95940.88;2010191;29;20093;-57
2023/06/12 03:53:37;;;;;;;10.68;8.40;;;;;;;13.05;79.37;95939.22;2010284;29;20053;-57
2023/06/12 03:54:39;;;;;;;11.77;8.15;;;;;;;13.05;79.08;95944.44;2009955;29;20112;-56
2023/06/12 03:55:41;;;;;;;11.43;8.93;;;;;;;13.07;79.54;95940.81;2009813;29;20473;-56
2023/06/12 03:56:42;;;;;;;10.00;8.07;;;;;;;13.07;79.11;95939.94;2010278;29;20398;-57
2023/06/12 03:57:45;;;;;;;10.25;8.98;;;;;;;13.05;79.28;95945.28;2009984;29;20061;-57
2023/06/12 03:58:46;;;;;;;10.45;8.52;;;;;;;13.01;79.21;95935.94;2017919;29;20509;-56
2023/06/12 03:59:47;;;;;;;10.95;8.65;;;;;;;13.10;79.69;95945.00;2017397;29;20061;-57
2023/06/12 04:00:48;;;;;;;13.43;8.27;;;;;;;13.14;79.33;95944.72;2010271;29;20057;-57
2023/06/12 04:01:51;;;;;;;12.80;8.13;;;;;;;13.06;79.30;95938.28;2010191;29;20061;-57
2023/06/12 04:02:54;;;;;;;11.10;8.43;;;;;;;13.14;79.17;95944.72;2010384;29;20057;-57
2023/06/12 04:03:56;;;;;;;9.73;7.97;;;;;;;13.18;79.24;95953.22;2009647;29;20053;-56
2023/06/12 04:04:57;;;;;;;9.13;8.07;;;;;;;13.21;79.18;95948.66;2017433;29;20059;-58
2023/06/12 04:05:58;;;;;;;10.52;8.70;;;;;;;13.19;79.22;95937.47;2010404;29;20056;-57
2023/06/12 04:06:59;;;;;;;9.60;7.93;;;;;;;13.35;78.95;95953.09;2017920;29;20055;-57
2023/06/12 04:08:00;;;;;;;12.00;8.75;;;;;;;13.38;78.70;95950.31;2017202;29;20064;-57
2023/06/12 04:09:01;;;;;;;10.85;8.68;;;;;;;13.41;78.77;95960.56;2017419;29;20382;-56
2023/06/12 04:10:03;;;;;;;13.90;9.15;;;;;;;13.35;78.80;95937.44;2018013;29;20059;-57
2023/06/12 04:11:04;;;;;;;9.00;8.07;;;;;;;13.41;78.25;95942.28;2017192;29;20049;-56
2023/06/12 04:12:06;;;;;;;11.07;9.10;;;;;;;13.52;78.50;95948.66;2010147;29;20052;-57
2023/06/12 04:13:07;;;;;;;10.82;8.82;;;;;;;13.55;78.07;95953.69;2017890;29;20053;-57
2023/06/12 04:14:08;;;;;;;10.48;8.98;;;;;;;13.58;78.27;95948.28;2018188;29;20497;-57
2023/06/12 04:15:10;;;;;;;10.52;8.45;;;;;;;13.61;78.08;95956.78;2018667;29;20045;-57
2023/06/12 04:16:11;;;;;;;9.65;8.55;;;;;;;13.63;78.23;95951.44;2017182;29;20101;-56
2023/06/12 04:17:12;;;;;;;12.27;9.13;;;;;;;13.65;78.08;95962.63;2009988;29;20057;-56
2023/06/12 04:18:14;;;;;;;10.10;8.82;;;;;;;13.66;78.00;95954.72;2009792;29;20053;-57
2023/06/12 04:19:16;;;;;;;12.50;8.48;;;;;;;13.61;77.71;95941.13;2010246;29;20067;-56
2023/06/12 04:20:17;;;;;;;10.35;8.85;;;;;;;13.74;77.71;95958.63;2017351;29;20061;-57
2023/06/12 04:21:20;;;;;;;9.55;8.20;;;;;;;13.75;77.69;95955.94;2009844;29;20141;-57
2023/06/12 04:22:22;;;;;;;11.23;8.70;;;;;;;13.79;77.46;95964.41;2009842;29;20584;-56
2023/06/12 04:23:29;;;;;;;10.77;9.05;;;;;;;13.82;77.25;95959.88;2018184;29;20454;-56
2023/06/12 04:24:31;;;;;;;10.10;8.77;;;;;;;13.86;77.16;95960.50;2020396;29;20053;-56
2023/06/12 04:25:32;;;;;;;9.68;8.32;;;;;;;13.89;77.25;95955.94;2009450;29;20080;-56
2023/06/12 04:26:36;;;;;;;11.75;8.75;;;;;;;13.92;77.14;95959.28;2009373;29;20065;-57
2023/06/12 04:27:41;;;;;;;12.35;7.97;;;;;;;13.92;77.29;95959.28;2017852;29;20060;-57
2023/06/12 04:28:42;;;;;;;11.45;9.15;;;;;;;13.97;77.17;95962.47;2017608;29;20437;-57
2023/06/12 04:29:43;;;;;;;11.40;8.55;;;;;;;13.99;77.05;95963.22;2017150;29;20062;-57
2023/06/12 04:30:46;;;;;;;11.95;8.05;;;;;;;14.02;76.46;95957.81;2017277;29;20056;-56
2023/06/12 04:31:49;;;;;;;12.32;9.15;;;;;;;14.02;76.61;95958.63;2017882;29;20052;-57
2023/06/12 04:32:53;;;;;;;9.10;7.88;;;;;;;14.08;76.80;95958.25;2017188;29;20052;-57
2023/06/12 04:33:54;;;;;;;11.50;8.60;;;;;;;14.12;77.06;95959.75;2016974;29;20057;-57
2023/06/12 04:34:56;;;;;;;9.75;8.25;;;;;;;14.14;76.55;95957.06;2017806;29;20045;-57
2023/06/12 04:35:58;;;;;;;12.88;9.05;;;;;;;14.17;76.47;95953.41;2017748;29;20049;-57
2023/06/12 04:36:59;;;;;;;12.57;8.93;;;;;;;14.19;76.39;95954.13;2017256;29;20057;-58
2023/06/12 04:38:00;;;;;;;10.48;8.82;;;;;;;14.22;76.40;95956.56;2010095;29;20054;-58
2023/06/12 04:39:01;;;;;;;10.68;9.35;;;;;;;14.24;76.22;95962.53;2017563;29;20536;-58
2023/06/12 04:40:04;;;;;;;10.30;8.75;;;;;;;14.24;76.05;95957.31;2009660;29;20054;-58
2023/06/12 04:41:06;;;;;;;9.52;8.52;;;;;;;14.27;76.08;95962.34;2009662;29;20053;-58
2023/06/12 04:42:08;;;;;;;12.45;9.05;;;;;;;14.21;75.89;95952.28;2017032;29;20553;-58
2023/06/12 04:43:10;;;;;;;11.77;8.65;;;;;;;14.31;75.92;95958.63;2017012;29;20512;-58
2023/06/12 04:44:12;;;;;;;10.00;8.15;;;;;;;14.35;75.75;95952.25;2009856;29;20061;-58
2023/06/12 04:45:16;;;;;;;11.98;8.75;;;;;;;14.37;75.59;95960.84;2009965;29;20060;-58
2023/06/12 04:46:18;;;;;;;10.60;8.68;;;;;;;14.39;75.82;95953.75;2010049;29;20053;-58
2023/06/12 04:47:23;;;;;;;11.27;8.98;;;;;;;14.45;75.91;95957.75;2010258;29;20493;-58
2023/06/12 04:48:24;;;;;;;9.45;8.45;;;;;;;14.48;75.26;95957.53;2009666;29;20464;-59
2023/06/12 04:49:25;;;;;;;9.57;8.30;;;;;;;14.51;75.24;95957.34;2017100;29;20068;-58
2023/06/12 04:50:27;;;;;;;9.90;8.43;;;;;;;14.50;75.20;95955.69;2016972;29;20053;-58
2023/06/12 04:51:28;;;;;;;11.68;8.50;;;;;;;14.58;75.47;95960.47;2017142;29;20057;-58
2023/06/12 04:52:32;;;;;;;12.10;9.18;;;;;;;14.62;75.22;95962.78;2017534;29;20049;-58
2023/06/12 04:53:34;;;;;;;10.70;8.70;;;;;;;14.65;75.05;95962.59;2017361;29;20107;-57
2023/06/12 04:54:36;;;;;;;9.27;8.27;;;;;;;14.62;74.61;95957.56;2002406;29;20066;-57
2023/06/12 04:55:38;;;;;;;10.98;8.80;;;;;;;14.64;75.35;95954.81;2009846;29;20049;-58